sensor_id;sensor_type;location;lat;lon;timestamp;temperature;humidity
53844;DHT22;39744;53.314;5.710;2022-12-29T00:02:14;8.90;99.90
53844;DHT22;39744;53.314;5.710;2022-12-29T00:04:39;8.90;99.90
53844;DHT22;39744;53.314;5.710;2022-12-29T00:07:06;8.90;99.90
53844;DHT22;39744;53.314;5.710;2022-12-29T00:09:33;8.80;99.90
53844;DHT22;39744;53.314;5.710;2022-12-29T00:11:59;8.90;99.90
53844;DHT22;39744;53.314;5.710;2022-12-29T00:14:26;8.80;99.90
53844;DHT22;39744;53.314;5.710;2022-12-29T00:17:10;8.80;99.90
53844;DHT22;39744;53.314;5.710;2022-12-29T00:19:36;8.70;99.90
53844;DHT22;39744;53.314;5.710;2022-12-29T00:22:20;8.70;99.90
53844;DHT22;39744;53.314;5.710;2022-12-29T00:25:07;8.70;99.90
53844;DHT22;39744;53.314;5.710;2022-12-29T00:27:51;8.70;99.90
53844;DHT22;39744;53.314;5.710;2022-12-29T00:30:36;8.70;99.90
53844;DHT22;39744;53.314;5.710;2022-12-29T00:33:22;8.70;99.90
53844;DHT22;39744;53.314;5.710;2022-12-29T00:36:16;8.70;99.90
53844;DHT22;39744;53.314;5.710;2022-12-29T00:38:47;8.70;99.90
53844;DHT22;39744;53.314;5.710;2022-12-29T00:41:36;8.70;99.90
53844;DHT22;39744;53.314;5.710;2022-12-29T00:44:21;8.70;99.90
53844;DHT22;39744;53.314;5.710;2022-12-29T00:46:47;8.70;99.90
53844;DHT22;39744;53.314;5.710;2022-12-29T00:49:13;8.70;99.90
53844;DHT22;39744;53.314;5.710;2022-12-29T00:52:06;8.70;99.90
53844;DHT22;39744;53.314;5.710;2022-12-29T00:54:36;8.80;99.90
53844;DHT22;39744;53.314;5.710;2022-12-29T00:57:03;8.70;99.90
53844;DHT22;39744;53.314;5.710;2022-12-29T00:59:30;8.80;99.90
53844;DHT22;39744;53.314;5.710;2022-12-29T01:01:56;8.70;99.90
53844;DHT22;39744;53.314;5.710;2022-12-29T01:04:23;8.70;99.90
53844;DHT22;39744;53.314;5.710;2022-12-29T01:06:49;8.70;99.90
53844;DHT22;39744;53.314;5.710;2022-12-29T01:09:16;8.70;99.90
53844;DHT22;39744;53.314;5.710;2022-12-29T01:12:01;8.70;99.90
53844;DHT22;39744;53.314;5.710;2022-12-29T01:14:26;8.70;99.90
53844;DHT22;39744;53.314;5.710;2022-12-29T01:16:52;8.80;99.90
53844;DHT22;39744;53.314;5.710;2022-12-29T01:19:19;8.80;99.90
53844;DHT22;39744;53.314;5.710;2022-12-29T01:21:47;8.80;99.90
53844;DHT22;39744;53.314;5.710;2022-12-29T01:24:15;8.80;99.90
53844;DHT22;39744;53.314;5.710;2022-12-29T01:26:41;8.80;99.90
53844;DHT22;39744;53.314;5.710;2022-12-29T01:29:07;8.80;99.90
53844;DHT22;39744;53.314;5.710;2022-12-29T01:31:33;8.90;99.90
53844;DHT22;39744;53.314;5.710;2022-12-29T01:33:59;8.90;99.90
53844;DHT22;39744;53.314;5.710;2022-12-29T01:36:25;8.90;99.90
53844;DHT22;39744;53.314;5.710;2022-12-29T01:38:50;8.90;99.90
53844;DHT22;39744;53.314;5.710;2022-12-29T01:41:16;8.90;99.90
53844;DHT22;39744;53.314;5.710;2022-12-29T01:43:50;8.90;99.90
53844;DHT22;39744;53.314;5.710;2022-12-29T01:46:25;8.90;99.90
53844;DHT22;39744;53.314;5.710;2022-12-29T01:49:04;8.90;99.90
53844;DHT22;39744;53.314;5.710;2022-12-29T01:51:31;8.90;99.90
53844;DHT22;39744;53.314;5.710;2022-12-29T01:54:01;8.90;99.90
53844;DHT22;39744;53.314;5.710;2022-12-29T01:56:28;8.90;99.90
53844;DHT22;39744;53.314;5.710;2022-12-29T01:59:03;8.90;99.90
53844;DHT22;39744;53.314;5.710;2022-12-29T02:01:30;8.90;99.90
53844;DHT22;39744;53.314;5.710;2022-12-29T02:03:57;9.00;99.90
53844;DHT22;39744;53.314;5.710;2022-12-29T02:06:31;9.00;99.90
53844;DHT22;39744;53.314;5.710;2022-12-29T02:08:58;9.00;99.90
53844;DHT22;39744;53.314;5.710;2022-12-29T02:11:26;9.00;99.90
53844;DHT22;39744;53.314;5.710;2022-12-29T02:13:54;9.00;99.90
53844;DHT22;39744;53.314;5.710;2022-12-29T02:33:33;9.00;99.90
53844;DHT22;39744;53.314;5.710;2022-12-29T02:36:14;9.00;99.90
53844;DHT22;39744;53.314;5.710;2022-12-29T02:41:19;9.00;99.90
53844;DHT22;39744;53.314;5.710;2022-12-29T02:44:04;8.90;99.90
53844;DHT22;39744;53.314;5.710;2022-12-29T02:46:36;8.90;99.90
53844;DHT22;39744;53.314;5.710;2022-12-29T02:49:20;8.90;99.90
53844;DHT22;39744;53.314;5.710;2022-12-29T02:51:52;8.80;99.90
53844;DHT22;39744;53.314;5.710;2022-12-29T02:54:20;8.80;99.90
53844;DHT22;39744;53.314;5.710;2022-12-29T02:57:27;8.80;99.90
53844;DHT22;39744;53.314;5.710;2022-12-29T03:00:07;8.90;99.90
53844;DHT22;39744;53.314;5.710;2022-12-29T03:02:51;8.90;99.90
53844;DHT22;39744;53.314;5.710;2022-12-29T03:05:28;8.90;99.90
53844;DHT22;39744;53.314;5.710;2022-12-29T03:11:08;8.90;99.90
53844;DHT22;39744;53.314;5.710;2022-12-29T03:14:07;9.00;99.90
53844;DHT22;39744;53.314;5.710;2022-12-29T03:17:00;9.00;99.90
53844;DHT22;39744;53.314;5.710;2022-12-29T03:19:41;9.00;99.90
53844;DHT22;39744;53.314;5.710;2022-12-29T03:22:19;9.00;99.90
53844;DHT22;39744;53.314;5.710;2022-12-29T03:25:12;8.90;99.90
53844;DHT22;39744;53.314;5.710;2022-12-29T03:27:47;8.90;99.90
53844;DHT22;39744;53.314;5.710;2022-12-29T03:30:14;8.80;99.90
53844;DHT22;39744;53.314;5.710;2022-12-29T03:32:46;8.70;99.90
53844;DHT22;39744;53.314;5.710;2022-12-29T03:35:15;8.70;99.90
53844;DHT22;39744;53.314;5.710;2022-12-29T03:37:48;8.60;99.90
53844;DHT22;39744;53.314;5.710;2022-12-29T03:40:15;8.60;99.90
53844;DHT22;39744;53.314;5.710;2022-12-29T03:42:43;8.40;99.90
53844;DHT22;39744;53.314;5.710;2022-12-29T03:45:10;8.50;99.90
53844;DHT22;39744;53.314;5.710;2022-12-29T03:47:36;8.50;99.90
53844;DHT22;39744;53.314;5.710;2022-12-29T03:50:01;8.40;99.90
53844;DHT22;39744;53.314;5.710;2022-12-29T03:52:27;8.50;99.90
53844;DHT22;39744;53.314;5.710;2022-12-29T03:54:53;8.40;99.90
53844;DHT22;39744;53.314;5.710;2022-12-29T03:57:18;8.30;99.90
53844;DHT22;39744;53.314;5.710;2022-12-29T03:59:44;8.30;99.90
53844;DHT22;39744;53.314;5.710;2022-12-29T04:02:09;8.30;99.90
53844;DHT22;39744;53.314;5.710;2022-12-29T04:04:35;8.30;99.90
53844;DHT22;39744;53.314;5.710;2022-12-29T04:07:00;8.30;99.90
53844;DHT22;39744;53.314;5.710;2022-12-29T04:09:26;8.30;99.90
53844;DHT22;39744;53.314;5.710;2022-12-29T04:11:52;8.20;99.90
53844;DHT22;39744;53.314;5.710;2022-12-29T04:14:17;8.30;99.90
53844;DHT22;39744;53.314;5.710;2022-12-29T04:16:43;8.30;99.90
53844;DHT22;39744;53.314;5.710;2022-12-29T04:19:08;8.30;99.90
53844;DHT22;39744;53.314;5.710;2022-12-29T04:21:34;8.20;99.90
53844;DHT22;39744;53.314;5.710;2022-12-29T04:24:01;8.20;99.90
53844;DHT22;39744;53.314;5.710;2022-12-29T04:26:26;8.10;99.90
53844;DHT22;39744;53.314;5.710;2022-12-29T04:28:52;8.10;99.90
53844;DHT22;39744;53.314;5.710;2022-12-29T04:31:18;8.10;99.90
53844;DHT22;39744;53.314;5.710;2022-12-29T04:33:43;8.10;99.90
53844;DHT22;39744;53.314;5.710;2022-12-29T04:36:09;8.20;99.90
53844;DHT22;39744;53.314;5.710;2022-12-29T04:38:35;8.10;99.90
53844;DHT22;39744;53.314;5.710;2022-12-29T04:41:01;7.90;99.90
53844;DHT22;39744;53.314;5.710;2022-12-29T04:43:27;8.00;99.90
53844;DHT22;39744;53.314;5.710;2022-12-29T04:45:53;8.10;99.90
53844;DHT22;39744;53.314;5.710;2022-12-29T04:48:19;8.30;99.90
53844;DHT22;39744;53.314;5.710;2022-12-29T04:50:48;8.00;99.90
53844;DHT22;39744;53.314;5.710;2022-12-29T04:53:15;7.80;99.90
53844;DHT22;39744;53.314;5.710;2022-12-29T04:55:41;8.10;99.90
53844;DHT22;39744;53.314;5.710;2022-12-29T04:58:06;8.10;99.90
53844;DHT22;39744;53.314;5.710;2022-12-29T05:00:32;9.10;99.90
53844;DHT22;39744;53.314;5.710;2022-12-29T05:02:59;7.40;99.90
53844;DHT22;39744;53.314;5.710;2022-12-29T05:05:25;7.90;99.90
53844;DHT22;39744;53.314;5.710;2022-12-29T05:07:51;7.50;99.90
53844;DHT22;39744;53.314;5.710;2022-12-29T05:10:16;7.60;99.90
53844;DHT22;39744;53.314;5.710;2022-12-29T05:12:42;7.70;99.90
53844;DHT22;39744;53.314;5.710;2022-12-29T05:15:09;8.00;99.90
53844;DHT22;39744;53.314;5.710;2022-12-29T05:17:36;8.00;99.90
53844;DHT22;39744;53.314;5.710;2022-12-29T05:20:02;8.00;99.90
53844;DHT22;39744;53.314;5.710;2022-12-29T05:22:28;8.30;99.90
53844;DHT22;39744;53.314;5.710;2022-12-29T05:24:54;8.20;99.90
53844;DHT22;39744;53.314;5.710;2022-12-29T05:27:19;8.20;99.90
53844;DHT22;39744;53.314;5.710;2022-12-29T05:29:45;8.40;99.90
53844;DHT22;39744;53.314;5.710;2022-12-29T05:32:10;8.30;99.90
53844;DHT22;39744;53.314;5.710;2022-12-29T05:34:36;8.40;99.90
53844;DHT22;39744;53.314;5.710;2022-12-29T05:37:02;8.40;99.90
53844;DHT22;39744;53.314;5.710;2022-12-29T05:39:28;8.30;99.90
53844;DHT22;39744;53.314;5.710;2022-12-29T05:41:54;8.30;99.90
53844;DHT22;39744;53.314;5.710;2022-12-29T05:44:20;8.20;99.90
53844;DHT22;39744;53.314;5.710;2022-12-29T05:46:45;8.20;99.90
53844;DHT22;39744;53.314;5.710;2022-12-29T05:49:11;8.10;99.90
53844;DHT22;39744;53.314;5.710;2022-12-29T05:51:37;8.20;99.90
53844;DHT22;39744;53.314;5.710;2022-12-29T05:54:02;8.20;99.90
53844;DHT22;39744;53.314;5.710;2022-12-29T05:56:28;8.30;99.90
53844;DHT22;39744;53.314;5.710;2022-12-29T05:58:54;8.10;99.90
53844;DHT22;39744;53.314;5.710;2022-12-29T06:01:19;8.00;99.90
53844;DHT22;39744;53.314;5.710;2022-12-29T06:03:45;8.00;99.90
53844;DHT22;39744;53.314;5.710;2022-12-29T06:06:11;8.00;99.90
53844;DHT22;39744;53.314;5.710;2022-12-29T06:08:36;8.10;99.90
53844;DHT22;39744;53.314;5.710;2022-12-29T06:11:02;8.00;99.90
53844;DHT22;39744;53.314;5.710;2022-12-29T06:13:27;8.20;99.90
53844;DHT22;39744;53.314;5.710;2022-12-29T06:15:53;8.00;99.90
53844;DHT22;39744;53.314;5.710;2022-12-29T06:18:19;7.90;99.90
53844;DHT22;39744;53.314;5.710;2022-12-29T06:20:44;7.90;99.90
53844;DHT22;39744;53.314;5.710;2022-12-29T06:23:10;8.00;99.90
53844;DHT22;39744;53.314;5.710;2022-12-29T06:25:38;8.00;99.90
53844;DHT22;39744;53.314;5.710;2022-12-29T06:28:04;8.00;99.90
53844;DHT22;39744;53.314;5.710;2022-12-29T06:30:31;8.00;99.90
53844;DHT22;39744;53.314;5.710;2022-12-29T06:32:58;8.00;99.90
53844;DHT22;39744;53.314;5.710;2022-12-29T06:35:24;8.00;99.90
53844;DHT22;39744;53.314;5.710;2022-12-29T06:37:49;8.00;99.90
53844;DHT22;39744;53.314;5.710;2022-12-29T06:40:15;7.90;99.90
53844;DHT22;39744;53.314;5.710;2022-12-29T06:42:41;8.10;99.90
53844;DHT22;39744;53.314;5.710;2022-12-29T06:45:07;8.00;99.90
53844;DHT22;39744;53.314;5.710;2022-12-29T06:47:34;8.10;99.90
53844;DHT22;39744;53.314;5.710;2022-12-29T06:49:59;8.00;99.90
53844;DHT22;39744;53.314;5.710;2022-12-29T06:52:25;8.10;99.90
53844;DHT22;39744;53.314;5.710;2022-12-29T06:54:51;8.00;99.90
53844;DHT22;39744;53.314;5.710;2022-12-29T06:57:17;8.10;99.90
53844;DHT22;39744;53.314;5.710;2022-12-29T06:59:43;8.10;99.90
53844;DHT22;39744;53.314;5.710;2022-12-29T07:02:11;8.10;99.90
53844;DHT22;39744;53.314;5.710;2022-12-29T07:04:36;8.20;99.90
53844;DHT22;39744;53.314;5.710;2022-12-29T07:07:02;8.20;99.90
53844;DHT22;39744;53.314;5.710;2022-12-29T07:09:28;8.20;99.90
53844;DHT22;39744;53.314;5.710;2022-12-29T07:11:53;8.30;99.90
53844;DHT22;39744;53.314;5.710;2022-12-29T07:14:19;8.30;99.90
53844;DHT22;39744;53.314;5.710;2022-12-29T07:16:45;8.40;99.90
53844;DHT22;39744;53.314;5.710;2022-12-29T07:19:10;8.40;99.90
53844;DHT22;39744;53.314;5.710;2022-12-29T07:21:36;8.40;99.90
53844;DHT22;39744;53.314;5.710;2022-12-29T07:24:02;8.40;99.90
53844;DHT22;39744;53.314;5.710;2022-12-29T07:26:27;8.50;99.90
53844;DHT22;39744;53.314;5.710;2022-12-29T07:28:53;8.30;99.90
53844;DHT22;39744;53.314;5.710;2022-12-29T07:31:21;8.30;99.90
53844;DHT22;39744;53.314;5.710;2022-12-29T07:33:47;8.20;99.90
53844;DHT22;39744;53.314;5.710;2022-12-29T07:36:13;8.30;99.90
53844;DHT22;39744;53.314;5.710;2022-12-29T07:38:40;8.20;99.90
53844;DHT22;39744;53.314;5.710;2022-12-29T07:41:06;8.20;99.90
53844;DHT22;39744;53.314;5.710;2022-12-29T07:43:31;8.20;99.90
53844;DHT22;39744;53.314;5.710;2022-12-29T07:45:57;8.20;99.90
53844;DHT22;39744;53.314;5.710;2022-12-29T07:48:23;8.20;99.90
53844;DHT22;39744;53.314;5.710;2022-12-29T07:50:48;8.10;99.90
53844;DHT22;39744;53.314;5.710;2022-12-29T07:53:14;8.10;99.90
53844;DHT22;39744;53.314;5.710;2022-12-29T07:55:40;8.20;99.90
53844;DHT22;39744;53.314;5.710;2022-12-29T07:58:06;8.40;99.90
53844;DHT22;39744;53.314;5.710;2022-12-29T08:00:31;8.40;99.90
53844;DHT22;39744;53.314;5.710;2022-12-29T08:02:57;8.10;99.90
53844;DHT22;39744;53.314;5.710;2022-12-29T08:05:23;8.10;99.90
53844;DHT22;39744;53.314;5.710;2022-12-29T08:07:49;8.20;99.90
53844;DHT22;39744;53.314;5.710;2022-12-29T08:10:15;7.80;99.90
53844;DHT22;39744;53.314;5.710;2022-12-29T08:12:41;8.20;99.90
53844;DHT22;39744;53.314;5.710;2022-12-29T08:15:09;7.80;99.90
53844;DHT22;39744;53.314;5.710;2022-12-29T08:17:35;8.20;99.90
53844;DHT22;39744;53.314;5.710;2022-12-29T08:20:01;8.00;99.90
53844;DHT22;39744;53.314;5.710;2022-12-29T08:22:26;8.10;99.90
53844;DHT22;39744;53.314;5.710;2022-12-29T08:24:52;8.10;99.90
53844;DHT22;39744;53.314;5.710;2022-12-29T08:27:18;8.10;99.90
53844;DHT22;39744;53.314;5.710;2022-12-29T08:29:44;8.00;99.90
53844;DHT22;39744;53.314;5.710;2022-12-29T08:32:09;8.20;99.90
53844;DHT22;39744;53.314;5.710;2022-12-29T08:34:35;8.20;99.90
53844;DHT22;39744;53.314;5.710;2022-12-29T08:37:00;8.50;99.90
53844;DHT22;39744;53.314;5.710;2022-12-29T08:39:26;8.20;99.90
53844;DHT22;39744;53.314;5.710;2022-12-29T08:41:52;8.30;99.90
53844;DHT22;39744;53.314;5.710;2022-12-29T08:44:18;8.20;99.90
53844;DHT22;39744;53.314;5.710;2022-12-29T08:46:43;8.30;99.90
53844;DHT22;39744;53.314;5.710;2022-12-29T08:49:09;8.30;99.90
53844;DHT22;39744;53.314;5.710;2022-12-29T08:51:35;8.30;99.90
53844;DHT22;39744;53.314;5.710;2022-12-29T08:54:00;8.30;99.90
53844;DHT22;39744;53.314;5.710;2022-12-29T08:56:27;8.20;99.90
53844;DHT22;39744;53.314;5.710;2022-12-29T08:58:53;8.20;99.90
53844;DHT22;39744;53.314;5.710;2022-12-29T09:01:19;8.80;99.90
53844;DHT22;39744;53.314;5.710;2022-12-29T09:03:45;8.30;99.90
53844;DHT22;39744;53.314;5.710;2022-12-29T09:06:11;8.30;99.90
53844;DHT22;39744;53.314;5.710;2022-12-29T09:08:37;8.30;99.90
53844;DHT22;39744;53.314;5.710;2022-12-29T09:11:11;8.40;99.90
53844;DHT22;39744;53.314;5.710;2022-12-29T09:13:38;8.40;99.90
53844;DHT22;39744;53.314;5.710;2022-12-29T09:16:04;8.40;99.90
53844;DHT22;39744;53.314;5.710;2022-12-29T09:18:30;8.50;99.90
53844;DHT22;39744;53.314;5.710;2022-12-29T09:20:59;8.50;99.90
53844;DHT22;39744;53.314;5.710;2022-12-29T09:23:25;8.50;99.90
53844;DHT22;39744;53.314;5.710;2022-12-29T09:25:52;8.50;99.90
53844;DHT22;39744;53.314;5.710;2022-12-29T09:28:17;8.50;99.90
53844;DHT22;39744;53.314;5.710;2022-12-29T09:30:43;8.60;99.90
53844;DHT22;39744;53.314;5.710;2022-12-29T09:33:09;8.60;99.90
53844;DHT22;39744;53.314;5.710;2022-12-29T09:35:34;8.50;99.90
53844;DHT22;39744;53.314;5.710;2022-12-29T09:38:00;8.50;99.90
53844;DHT22;39744;53.314;5.710;2022-12-29T09:40:27;8.50;99.90
53844;DHT22;39744;53.314;5.710;2022-12-29T09:45:36;8.60;99.90
53844;DHT22;39744;53.314;5.710;2022-12-29T09:48:14;8.60;99.90
53844;DHT22;39744;53.314;5.710;2022-12-29T09:50:44;8.60;99.90
53844;DHT22;39744;53.314;5.710;2022-12-29T09:53:27;8.60;99.90
53844;DHT22;39744;53.314;5.710;2022-12-29T09:55:56;8.60;99.90
53844;DHT22;39744;53.314;5.710;2022-12-29T09:58:37;8.60;99.90
53844;DHT22;39744;53.314;5.710;2022-12-29T10:01:18;8.60;99.90
53844;DHT22;39744;53.314;5.710;2022-12-29T10:03:49;8.60;99.90
53844;DHT22;39744;53.314;5.710;2022-12-29T10:06:37;8.50;99.90
53844;DHT22;39744;53.314;5.710;2022-12-29T10:12:02;8.40;99.90
53844;DHT22;39744;53.314;5.710;2022-12-29T10:17:22;8.40;99.90
53844;DHT22;39744;53.314;5.710;2022-12-29T10:25:51;8.50;99.90
53844;DHT22;39744;53.314;5.710;2022-12-29T10:28:21;8.50;99.90
53844;DHT22;39744;53.314;5.710;2022-12-29T10:30:48;8.50;99.90
53844;DHT22;39744;53.314;5.710;2022-12-29T10:33:21;8.40;99.90
53844;DHT22;39744;53.314;5.710;2022-12-29T10:35:50;8.40;99.90
53844;DHT22;39744;53.314;5.710;2022-12-29T10:38:39;8.40;99.90
53844;DHT22;39744;53.314;5.710;2022-12-29T10:41:16;8.40;99.90
53844;DHT22;39744;53.314;5.710;2022-12-29T10:43:48;8.50;99.90
53844;DHT22;39744;53.314;5.710;2022-12-29T10:46:25;8.40;99.90
53844;DHT22;39744;53.314;5.710;2022-12-29T10:48:52;8.50;99.90
53844;DHT22;39744;53.314;5.710;2022-12-29T10:51:24;8.40;99.90
53844;DHT22;39744;53.314;5.710;2022-12-29T10:53:53;8.50;99.90
53844;DHT22;39744;53.314;5.710;2022-12-29T10:56:32;8.50;99.90
53844;DHT22;39744;53.314;5.710;2022-12-29T10:59:16;8.60;99.90
53844;DHT22;39744;53.314;5.710;2022-12-29T11:05:38;8.60;99.90
53844;DHT22;39744;53.314;5.710;2022-12-29T11:08:00;8.50;99.90
53844;DHT22;39744;53.314;5.710;2022-12-29T11:10:36;8.40;99.90
53844;DHT22;39744;53.314;5.710;2022-12-29T11:13:17;8.40;99.90
53844;DHT22;39744;53.314;5.710;2022-12-29T11:15:48;8.50;99.90
53844;DHT22;39744;53.314;5.710;2022-12-29T11:18:24;8.50;99.90
53844;DHT22;39744;53.314;5.710;2022-12-29T11:20:55;8.50;99.90
53844;DHT22;39744;53.314;5.710;2022-12-29T11:23:36;8.60;99.90
53844;DHT22;39744;53.314;5.710;2022-12-29T11:26:25;8.60;99.90
53844;DHT22;39744;53.314;5.710;2022-12-29T11:31:46;8.60;99.90
53844;DHT22;39744;53.314;5.710;2022-12-29T11:36:47;8.60;99.90
53844;DHT22;39744;53.314;5.710;2022-12-29T11:42:06;8.60;99.90
53844;DHT22;39744;53.314;5.710;2022-12-29T11:44:42;8.70;99.90
53844;DHT22;39744;53.314;5.710;2022-12-29T11:47:13;8.70;99.90
53844;DHT22;39744;53.314;5.710;2022-12-29T11:49:39;8.70;99.90
53844;DHT22;39744;53.314;5.710;2022-12-29T11:52:06;8.70;99.90
53844;DHT22;39744;53.314;5.710;2022-12-29T11:54:36;8.60;99.90
53844;DHT22;39744;53.314;5.710;2022-12-29T11:57:14;8.70;99.90
53844;DHT22;39744;53.314;5.710;2022-12-29T11:59:42;8.70;99.90
53844;DHT22;39744;53.314;5.710;2022-12-29T12:05:24;8.70;99.90
53844;DHT22;39744;53.314;5.710;2022-12-29T12:07:57;8.70;99.90
53844;DHT22;39744;53.314;5.710;2022-12-29T12:10:29;8.70;99.90
53844;DHT22;39744;53.314;5.710;2022-12-29T12:13:19;8.70;99.90
53844;DHT22;39744;53.314;5.710;2022-12-29T12:16:09;8.80;99.90
53844;DHT22;39744;53.314;5.710;2022-12-29T12:18:41;8.80;99.90
53844;DHT22;39744;53.314;5.710;2022-12-29T12:21:27;8.80;99.90
53844;DHT22;39744;53.314;5.710;2022-12-29T12:31:59;8.90;99.90
53844;DHT22;39744;53.314;5.710;2022-12-29T12:34:44;8.90;99.90
53844;DHT22;39744;53.314;5.710;2022-12-29T12:37:29;8.90;99.90
53844;DHT22;39744;53.314;5.710;2022-12-29T12:49:11;8.80;99.90
53844;DHT22;39744;53.314;5.710;2022-12-29T12:52:15;8.90;99.90
53844;DHT22;39744;53.314;5.710;2022-12-29T13:00:15;8.90;99.90
53844;DHT22;39744;53.314;5.710;2022-12-29T13:03:12;8.90;99.90
53844;DHT22;39744;53.314;5.710;2022-12-29T13:08:52;8.80;99.90
53844;DHT22;39744;53.314;5.710;2022-12-29T13:17:18;8.80;99.90
53844;DHT22;39744;53.314;5.710;2022-12-29T13:20:14;8.70;99.90
53844;DHT22;39744;53.314;5.710;2022-12-29T13:26:02;8.70;99.90
53844;DHT22;39744;53.314;5.710;2022-12-29T13:28:52;8.70;99.90
53844;DHT22;39744;53.314;5.710;2022-12-29T13:36:36;8.60;99.90
53844;DHT22;39744;53.314;5.710;2022-12-29T13:39:23;8.60;99.90
53844;DHT22;39744;53.314;5.710;2022-12-29T13:42:10;8.60;99.90
53844;DHT22;39744;53.314;5.710;2022-12-29T13:44:44;8.60;99.90
53844;DHT22;39744;53.314;5.710;2022-12-29T13:50:00;8.50;99.90
53844;DHT22;39744;53.314;5.710;2022-12-29T14:01:13;8.40;99.90
53844;DHT22;39744;53.314;5.710;2022-12-29T14:03:54;8.30;99.90
53844;DHT22;39744;53.314;5.710;2022-12-29T14:06:29;8.30;99.90
53844;DHT22;39744;53.314;5.710;2022-12-29T14:11:30;8.30;99.90
53844;DHT22;39744;53.314;5.710;2022-12-29T14:13:56;8.30;99.90
53844;DHT22;39744;53.314;5.710;2022-12-29T14:16:31;8.40;99.90
53844;DHT22;39744;53.314;5.710;2022-12-29T14:19:05;8.30;99.90
53844;DHT22;39744;53.314;5.710;2022-12-29T14:21:36;8.40;99.90
53844;DHT22;39744;53.314;5.710;2022-12-29T14:26:56;8.40;99.90
53844;DHT22;39744;53.314;5.710;2022-12-29T14:31:52;8.30;99.90
53844;DHT22;39744;53.314;5.710;2022-12-29T14:36:58;8.30;99.90
53844;DHT22;39744;53.314;5.710;2022-12-29T14:39:42;8.20;99.90
53844;DHT22;39744;53.314;5.710;2022-12-29T14:42:12;8.20;99.90
53844;DHT22;39744;53.314;5.710;2022-12-29T14:44:52;8.20;99.90
53844;DHT22;39744;53.314;5.710;2022-12-29T14:49:55;8.10;99.90
53844;DHT22;39744;53.314;5.710;2022-12-29T14:52:28;8.10;99.90
53844;DHT22;39744;53.314;5.710;2022-12-29T14:58:00;8.10;99.90
53844;DHT22;39744;53.314;5.710;2022-12-29T15:00:29;8.00;99.90
53844;DHT22;39744;53.314;5.710;2022-12-29T15:03:17;8.00;99.90
53844;DHT22;39744;53.314;5.710;2022-12-29T15:05:58;8.00;99.90
53844;DHT22;39744;53.314;5.710;2022-12-29T15:08:33;8.00;99.90
53844;DHT22;39744;53.314;5.710;2022-12-29T15:11:18;8.00;99.90
53844;DHT22;39744;53.314;5.710;2022-12-29T15:13:45;8.00;99.90
53844;DHT22;39744;53.314;5.710;2022-12-29T15:16:32;8.00;99.90
53844;DHT22;39744;53.314;5.710;2022-12-29T15:18:58;8.00;99.90
53844;DHT22;39744;53.314;5.710;2022-12-29T15:21:35;8.00;99.90
53844;DHT22;39744;53.314;5.710;2022-12-29T15:24:03;8.00;99.90
53844;DHT22;39744;53.314;5.710;2022-12-29T15:26:42;8.00;99.90
53844;DHT22;39744;53.314;5.710;2022-12-29T15:32:01;8.00;99.90
53844;DHT22;39744;53.314;5.710;2022-12-29T15:34:35;8.00;99.90
53844;DHT22;39744;53.314;5.710;2022-12-29T15:37:06;8.10;99.90
53844;DHT22;39744;53.314;5.710;2022-12-29T15:39:32;8.10;99.90
53844;DHT22;39744;53.314;5.710;2022-12-29T15:44:48;8.10;99.90
53844;DHT22;39744;53.314;5.710;2022-12-29T15:47:22;8.10;99.90
53844;DHT22;39744;53.314;5.710;2022-12-29T15:49:55;8.10;99.90
53844;DHT22;39744;53.314;5.710;2022-12-29T15:52:23;8.10;99.90
53844;DHT22;39744;53.314;5.710;2022-12-29T15:54:51;8.00;99.90
53844;DHT22;39744;53.314;5.710;2022-12-29T15:57:22;8.00;99.90
53844;DHT22;39744;53.314;5.710;2022-12-29T15:59:48;8.00;99.90
53844;DHT22;39744;53.314;5.710;2022-12-29T16:02:14;7.90;99.90
53844;DHT22;39744;53.314;5.710;2022-12-29T16:04:40;7.90;99.90
53844;DHT22;39744;53.314;5.710;2022-12-29T16:07:26;7.90;99.90
53844;DHT22;39744;53.314;5.710;2022-12-29T16:10:00;7.90;99.90
53844;DHT22;39744;53.314;5.710;2022-12-29T16:12:34;7.90;99.90
53844;DHT22;39744;53.314;5.710;2022-12-29T16:15:12;7.80;99.90
53844;DHT22;39744;53.314;5.710;2022-12-29T16:18:04;7.70;99.90
53844;DHT22;39744;53.314;5.710;2022-12-29T16:20:39;7.70;99.90
53844;DHT22;39744;53.314;5.710;2022-12-29T16:23:16;7.70;99.90
53844;DHT22;39744;53.314;5.710;2022-12-29T16:25:43;7.70;99.90
53844;DHT22;39744;53.314;5.710;2022-12-29T16:28:27;7.70;99.90
53844;DHT22;39744;53.314;5.710;2022-12-29T16:31:02;7.60;99.90
53844;DHT22;39744;53.314;5.710;2022-12-29T16:33:52;7.60;99.90
53844;DHT22;39744;53.314;5.710;2022-12-29T16:36:28;7.60;99.90
53844;DHT22;39744;53.314;5.710;2022-12-29T16:41:40;7.60;99.90
53844;DHT22;39744;53.314;5.710;2022-12-29T16:44:29;7.70;99.90
53844;DHT22;39744;53.314;5.710;2022-12-29T16:49:37;7.70;99.90
53844;DHT22;39744;53.314;5.710;2022-12-29T16:52:22;7.70;99.90
53844;DHT22;39744;53.314;5.710;2022-12-29T16:54:55;7.70;99.90
53844;DHT22;39744;53.314;5.710;2022-12-29T16:57:27;7.70;99.90
53844;DHT22;39744;53.314;5.710;2022-12-29T16:59:55;7.70;99.90
53844;DHT22;39744;53.314;5.710;2022-12-29T17:02:24;7.70;99.90
53844;DHT22;39744;53.314;5.710;2022-12-29T17:04:50;7.70;99.90
53844;DHT22;39744;53.314;5.710;2022-12-29T17:07:24;7.80;99.90
53844;DHT22;39744;53.314;5.710;2022-12-29T17:09:50;7.80;99.90
53844;DHT22;39744;53.314;5.710;2022-12-29T17:12:25;7.80;99.90
53844;DHT22;39744;53.314;5.710;2022-12-29T17:17:43;7.80;99.90
53844;DHT22;39744;53.314;5.710;2022-12-29T17:22:43;7.80;99.90
53844;DHT22;39744;53.314;5.710;2022-12-29T17:25:33;7.70;99.90
53844;DHT22;39744;53.314;5.710;2022-12-29T17:28:06;7.70;99.90
53844;DHT22;39744;53.314;5.710;2022-12-29T17:30:36;7.80;99.90
53844;DHT22;39744;53.314;5.710;2022-12-29T17:33:05;7.70;99.90
53844;DHT22;39744;53.314;5.710;2022-12-29T17:35:33;7.70;99.90
53844;DHT22;39744;53.314;5.710;2022-12-29T17:37:58;7.70;99.90
53844;DHT22;39744;53.314;5.710;2022-12-29T17:40:27;7.70;99.90
53844;DHT22;39744;53.314;5.710;2022-12-29T17:42:55;7.60;99.90
53844;DHT22;39744;53.314;5.710;2022-12-29T17:45:27;7.60;99.90
53844;DHT22;39744;53.314;5.710;2022-12-29T17:47:53;7.60;99.90
53844;DHT22;39744;53.314;5.710;2022-12-29T17:50:24;7.50;99.90
53844;DHT22;39744;53.314;5.710;2022-12-29T17:52:55;7.50;99.90
53844;DHT22;39744;53.314;5.710;2022-12-29T17:55:23;7.50;99.90
53844;DHT22;39744;53.314;5.710;2022-12-29T17:57:49;7.40;99.90
53844;DHT22;39744;53.314;5.710;2022-12-29T18:00:20;7.40;99.90
53844;DHT22;39744;53.314;5.710;2022-12-29T18:02:47;7.40;99.90
53844;DHT22;39744;53.314;5.710;2022-12-29T18:05:27;7.50;99.90
53844;DHT22;39744;53.314;5.710;2022-12-29T18:07:55;7.50;99.90
53844;DHT22;39744;53.314;5.710;2022-12-29T18:10:23;7.50;99.90
53844;DHT22;39744;53.314;5.710;2022-12-29T18:12:51;7.50;99.90
53844;DHT22;39744;53.314;5.710;2022-12-29T18:17:47;7.50;99.90
53844;DHT22;39744;53.314;5.710;2022-12-29T18:20:14;7.50;99.90
53844;DHT22;39744;53.314;5.710;2022-12-29T18:22:40;7.50;99.90
53844;DHT22;39744;53.314;5.710;2022-12-29T18:28:00;7.50;99.90
53844;DHT22;39744;53.314;5.710;2022-12-29T18:30:26;7.40;99.90